ADDS METAR Data INFO
IDs: Format: Raw Decoded Include TAF

Data at: 0358 UTC 28 May 2016

Region: TOP
KATL 280352Z 12004KT 10SM SCT055 BKN250 24/16 A3010 RMK AO2 SLP182 T02440161

KBOS 280354Z 20011KT 10SM CLR 21/16 A3004 RMK AO2 SLP170 T02110161

KBWI 280354Z 00000KT 10SM FEW055 SCT090 BKN250 22/18 A3009 RMK AO2 SLP189 T02220183

KCLE 280351Z 17006KT 10SM CLR 24/17 A3003 RMK AO2 SLP163 T02390167

KCLT 280352Z 17006KT 10SM FEW070 SCT250 22/15 A3014 RMK AO2 SLP198 T02220150

KCVG 280352Z 19003KT 10SM BKN250 23/18 A3002 RMK AO2 SLP156 T02330183

KDCA 280352Z 19008KT 10SM FEW055 BKN250 24/20 A3009 RMK AO2 SLP191 T02440200

KDEN 280353Z 30009KT 10SM FEW100 SCT140 SCT200 11/07 A2998 RMK AO2 SLP115 T01060072

KDFW 280353Z 16005KT 10SM SCT250 20/17 A2980 RMK AO2 SLP083 T02000172

KDTW 280353Z 19003KT 9SM FEW070 SCT140 BKN200 22/16 A2999 RMK AO2 SLP149 T02220161

KEWR 280351Z 20011KT 10SM FEW150 SCT250 24/18 A3006 RMK AO2 SLP178 T02440178

KFLL 280353Z 09006KT 10SM SCT035 SCT220 27/21 A2996 RMK AO2 SLP146 T02670211

KIAD 280352Z 18005KT 10SM FEW048 SCT200 24/19 A3009 RMK AO2 SLP187 T02440194

KIAH 280353Z 09009KT 10SM FEW070 SCT130 BKN200 19/18 A2981 RMK AO2 SLP095 OCNL LTG DSNT S-SW T01890178

KJFK 280351Z 21009KT 10SM FEW130 SCT250 20/15 A3009 RMK AO2 SLP188 T02000150

KLAS 280256Z 20004KT 10SM FEW120 30/M04 A2971 RMK AO2 SLP038 T03001044 53002

KLAX 280353Z 23006KT 10SM BKN012 16/12 A2989 RMK AO2 SLP118 T01560122 $

KLGA 280351Z 19008KT 10SM FEW250 24/19 A3006 RMK AO2 SLP178 T02440194 $

KMCO 280353Z 06006KT 10SM FEW020 23/19 A3002 RMK AO2 SLP165 T02330194

KMDW 280353Z 18012G20KT 2SM -RA BR FEW014 SCT043 BKN110 22/19 A2988 RMK AO2 RAB36 SLP110 P0004 T02170194 $

KMEM 280354Z 14007KT 10SM FEW120 OVC160 21/18 A2989 RMK AO2 SLP117 T02110183 $

KMIA 280353Z 06007KT 10SM FEW025 FEW050 SCT250 26/21 A2997 RMK AO2 SLP149 T02610211

KMSP 280353Z 34003KT 9SM OVC013 18/16 A2975 RMK AO2 SLP073 T01780156

KORD 280351Z 19013G19KT 10SM -RA FEW110 21/18 A2988 RMK AO2 SLP113 P0000 T02060183 $

KPDX 280353Z 33008KT 10SM BKN060 BKN250 14/05 A3016 RMK AO2 SLP213 T01440050

KPHL 280354Z 20007KT 10SM SCT250 23/17 A3010 RMK AO2 SLP193 T02330167

KPHX 280351Z 25005KT 10SM CLR 30/00 A2974 RMK AO2 SLP055 T03000000

KPIT 280351Z 16003KT 10SM FEW250 23/17 A3007 RMK AO2 SLP178 T02330172

KSAN 280351Z 22006KT 10SM OVC018 18/12 A2991 RMK AO2 SLP128 T01780122

KSEA 280353Z 25007KT 10SM SCT047 BKN120 BKN250 13/06 A3013 RMK AO2 SLP208 T01330056

KSFO 280256Z 29015KT 10SM FEW200 20/10 A2984 RMK AO2 SLP105 T02060106 56010 $

KSLC 280354Z 33008KT 10SM FEW060 SCT120 BKN200 17/08 A2994 RMK AO2 RAE06 SLP101 P0000 T01670078

KSTL 280351Z 17009KT 10SM SCT037 BKN070 OVC100 22/19 A2984 RMK AO2 RAB25E42 SLP095 P0002 T02220194

KTPA 280353Z 08004KT 10SM CLR 26/19 A3000 RMK AO2 SLP159 T02610194